createdAt,value
2018-07-21T00:00:34.642Z,5.97
2018-07-21T00:03:40.284Z,5.57
2018-07-21T00:06:45.428Z,5.37
2018-07-21T00:09:49.784Z,5.07
2018-07-21T00:13:00.703Z,5.40
2018-07-21T00:16:05.093Z,6.17
2018-07-21T00:19:16.172Z,5.57
2018-07-21T00:22:20.609Z,6.77
2018-07-21T00:25:25.035Z,5.73
2018-07-21T00:28:29.499Z,6.27
2018-07-21T00:31:33.956Z,5.60
2018-07-21T00:34:38.916Z,5.93
2018-07-21T00:37:43.283Z,5.77
2018-07-21T00:40:47.612Z,6.10
2018-07-21T00:43:53.045Z,5.40
2018-07-21T00:46:57.510Z,5.60
2018-07-21T00:50:03.142Z,5.97
2018-07-21T00:53:07.528Z,5.50
2018-07-21T00:56:12.019Z,6.57
2018-07-21T00:59:17.171Z,5.87
2018-07-21T01:02:21.463Z,6.27
2018-07-21T01:05:26.356Z,6.27
2018-07-21T01:08:30.929Z,6.17
2018-07-21T01:11:35.558Z,6.27
2018-07-21T01:14:40.077Z,5.93
2018-07-21T01:17:44.639Z,5.83
2018-07-21T01:20:49.012Z,5.47
2018-07-21T01:23:53.511Z,6.03
2018-07-21T01:26:57.899Z,7.97
2018-07-21T01:30:02.315Z,19.03
2018-07-21T01:33:06.790Z,33.70
2018-07-21T01:36:11.175Z,29.13
2018-07-21T01:39:15.498Z,10.57
2018-07-21T01:42:19.971Z,7.20
2018-07-21T01:45:24.341Z,9.47
2018-07-21T01:48:28.849Z,6.80
2018-07-21T01:51:33.273Z,5.97
2018-07-21T01:54:38.689Z,6.20
2018-07-21T01:57:43.080Z,5.93
2018-07-21T02:00:47.429Z,6.47
2018-07-21T02:03:51.831Z,6.40
2018-07-21T02:06:56.303Z,6.07
2018-07-21T02:10:00.731Z,6.57
2018-07-21T02:13:05.697Z,6.30
2018-07-21T02:16:10.382Z,6.47
2018-07-21T02:19:15.231Z,6.43
2018-07-21T02:22:20.241Z,6.33
2018-07-21T02:25:24.827Z,5.67
2018-07-21T02:28:29.247Z,6.17
2018-07-21T02:31:33.391Z,6.37
2018-07-21T02:34:38.518Z,6.10
2018-07-21T02:37:42.883Z,6.10
2018-07-21T02:40:47.312Z,5.63
2018-07-21T02:43:51.566Z,6.47
2018-07-21T02:46:56.076Z,6.07
2018-07-21T02:50:00.515Z,6.07
2018-07-21T02:53:04.882Z,6.57
2018-07-21T02:56:09.288Z,6.70
2018-07-21T02:59:13.657Z,6.40
2018-07-21T03:02:17.990Z,6.07
2018-07-21T03:05:22.472Z,6.57
2018-07-21T03:08:26.862Z,6.50
2018-07-21T03:11:31.223Z,6.27
2018-07-21T03:14:35.624Z,6.57
2018-07-21T03:17:40.082Z,6.70
2018-07-21T03:20:44.091Z,6.50
2018-07-21T03:23:48.496Z,6.17
2018-07-21T03:26:52.816Z,6.30
2018-07-21T03:29:57.299Z,6.67
2018-07-21T03:33:01.828Z,6.60
2018-07-21T03:36:06.648Z,6.60
2018-07-21T03:39:11.995Z,6.77
2018-07-21T03:42:16.398Z,6.90
2018-07-21T03:45:20.886Z,6.87
2018-07-21T03:48:25.196Z,6.73
2018-07-21T03:51:29.523Z,6.67
2018-07-21T03:54:34.100Z,7.07
2018-07-21T03:57:38.578Z,6.47
2018-07-21T04:00:42.998Z,6.63
2018-07-21T04:03:47.380Z,6.77
2018-07-21T04:06:51.918Z,7.33
2018-07-21T04:09:56.357Z,7.30
2018-07-21T04:13:00.748Z,6.07
2018-07-21T04:16:05.106Z,6.80
2018-07-21T04:19:09.460Z,6.43
2018-07-21T04:22:13.960Z,6.20
2018-07-21T04:25:18.364Z,7.20
2018-07-21T04:28:22.652Z,7.17
2018-07-21T04:31:27.160Z,7.20
2018-07-21T04:34:31.524Z,6.27
2018-07-21T04:37:36.196Z,6.57
2018-07-21T04:40:40.443Z,6.40
2018-07-21T04:43:44.867Z,6.07
2018-07-21T04:46:49.214Z,6.63
2018-07-21T04:49:53.623Z,6.83
2018-07-21T04:52:58.092Z,6.73
2018-07-21T04:56:06.110Z,6.87
2018-07-21T04:59:10.834Z,6.67
2018-07-21T05:02:15.679Z,7.33
2018-07-21T05:05:20.533Z,7.23
2018-07-21T05:08:25.292Z,6.47
2018-07-21T05:11:29.857Z,7.13
2018-07-21T05:14:34.808Z,6.80
2018-07-21T05:17:39.296Z,6.77
2018-07-21T05:20:44.010Z,6.77
2018-07-21T05:23:48.346Z,6.87
2018-07-21T05:26:53.021Z,6.73
2018-07-21T05:29:57.591Z,6.53
2018-07-21T05:33:03.126Z,7.00
2018-07-21T05:36:08.698Z,7.00
2018-07-21T05:39:13.204Z,6.73
2018-07-21T05:42:19.775Z,7.27
2018-07-21T05:45:24.311Z,7.13
2018-07-21T05:48:28.929Z,7.23
2018-07-21T05:51:33.566Z,7.47
2018-07-21T05:54:38.501Z,8.00
2018-07-21T05:57:43.023Z,6.60
2018-07-21T06:00:47.749Z,7.43
2018-07-21T06:03:53.877Z,6.83
2018-07-21T06:06:58.508Z,6.47
2018-07-21T06:10:03.341Z,7.10
2018-07-21T06:13:08.012Z,6.17
2018-07-21T06:16:12.508Z,7.07
2018-07-21T06:19:17.019Z,6.50
2018-07-21T06:22:21.519Z,6.70
2018-07-21T06:25:26.102Z,6.50
2018-07-21T06:28:30.463Z,6.57
2018-07-21T06:31:35.055Z,6.87
2018-07-21T06:34:39.694Z,7.17
2018-07-21T06:37:44.272Z,6.97
2018-07-21T06:40:48.608Z,7.13
2018-07-21T06:43:52.878Z,7.47
2018-07-21T06:46:57.148Z,6.80
2018-07-21T06:50:01.441Z,7.13
2018-07-21T06:53:05.739Z,7.17
2018-07-21T06:56:10.045Z,6.63
2018-07-21T06:59:14.357Z,6.70
2018-07-21T07:02:18.676Z,6.77
2018-07-21T07:05:23.005Z,7.00
2018-07-21T07:08:27.337Z,6.70
2018-07-21T07:11:31.653Z,6.50
2018-07-21T07:14:37.354Z,6.50
2018-07-21T07:17:42.664Z,6.93
2018-07-21T07:20:47.598Z,7.30
2018-07-21T07:23:52.321Z,6.03
2018-07-21T07:26:56.778Z,6.90
2018-07-21T07:30:01.190Z,6.33
2018-07-21T07:33:05.327Z,6.63
2018-07-21T07:36:11.191Z,6.50
2018-07-21T07:39:15.515Z,6.47
2018-07-21T07:42:19.928Z,6.50
2018-07-21T07:45:24.243Z,6.17
2018-07-21T07:48:28.588Z,6.30
2018-07-21T07:51:33.360Z,7.40
2018-07-21T07:54:44.444Z,7.20
2018-07-21T07:57:48.736Z,6.97
2018-07-21T08:00:53.097Z,6.63
2018-07-21T08:03:57.230Z,6.57
2018-07-21T08:07:01.699Z,6.93
2018-07-21T08:10:06.593Z,6.87
2018-07-21T08:13:10.990Z,6.37
2018-07-21T08:16:15.311Z,6.43
2018-07-21T08:19:20.641Z,6.40
2018-07-21T08:22:25.241Z,6.13
2018-07-21T08:25:29.529Z,7.00
2018-07-21T08:28:33.913Z,6.17
2018-07-21T08:31:38.229Z,6.00
2018-07-21T08:34:42.498Z,6.57
2018-07-21T08:37:46.825Z,6.30
2018-07-21T08:40:51.006Z,6.07
2018-07-21T08:43:55.751Z,6.87
2018-07-21T08:47:00.029Z,6.10
2018-07-21T08:50:04.869Z,6.53
2018-07-21T08:53:09.244Z,6.40
2018-07-21T08:56:13.573Z,6.17
2018-07-21T08:59:17.991Z,5.83
2018-07-21T09:02:22.374Z,5.63
2018-07-21T09:05:26.727Z,6.13
2018-07-21T09:08:31.062Z,5.60
2018-07-21T09:11:35.872Z,6.23
2018-07-21T09:14:40.122Z,6.50
2018-07-21T09:17:44.427Z,7.23
2018-07-21T09:20:48.669Z,6.40
2018-07-21T09:23:52.988Z,6.27
2018-07-21T09:26:58.317Z,6.10
2018-07-21T09:30:02.672Z,6.43
2018-07-21T09:33:06.975Z,6.40
2018-07-21T09:36:11.331Z,6.07
2018-07-21T09:39:15.648Z,6.40
2018-07-21T09:42:20.062Z,7.03
2018-07-21T09:45:24.383Z,6.67
2018-07-21T09:48:28.651Z,5.93
2018-07-21T09:51:33.183Z,6.97
2018-07-21T09:54:37.770Z,6.47
2018-07-21T09:57:42.099Z,6.70
2018-07-21T10:00:51.774Z,6.30
2018-07-21T10:03:56.095Z,6.60
2018-07-21T10:07:00.268Z,6.27
2018-07-21T10:10:06.237Z,7.00
2018-07-21T10:13:10.612Z,6.87
2018-07-21T10:16:14.990Z,6.20
2018-07-21T10:19:19.972Z,7.37
2018-07-21T10:22:24.264Z,6.53
2018-07-21T10:25:34.436Z,7.20
2018-07-21T10:28:44.760Z,6.47
2018-07-21T10:31:49.160Z,6.50
2018-07-21T10:34:53.559Z,7.30
2018-07-21T10:37:57.866Z,6.60
2018-07-21T10:41:02.232Z,7.03
2018-07-21T10:44:06.586Z,6.97
2018-07-21T10:47:10.913Z,6.70
2018-07-21T10:50:15.279Z,6.80
2018-07-21T10:53:19.736Z,6.80
2018-07-21T10:56:24.151Z,6.27
2018-07-21T10:59:28.459Z,6.30
2018-07-21T11:02:35.645Z,6.90
2018-07-21T11:05:40.016Z,6.27
2018-07-21T11:08:44.426Z,6.40
2018-07-21T11:11:48.805Z,6.70
2018-07-21T11:14:53.657Z,6.17
2018-07-21T11:17:57.930Z,6.33
2018-07-21T11:21:02.261Z,6.50
2018-07-21T11:24:06.914Z,6.30
2018-07-21T11:27:11.392Z,6.10
2018-07-21T11:30:15.674Z,6.60
2018-07-21T11:33:20.086Z,6.53
2018-07-21T11:36:24.364Z,7.30
2018-07-21T11:39:30.550Z,6.47
2018-07-21T11:42:35.342Z,7.23
2018-07-21T11:45:39.901Z,6.63
2018-07-21T11:48:44.240Z,6.77
2018-07-21T11:51:48.704Z,6.47
2018-07-21T11:54:53.249Z,7.07
2018-07-21T11:57:58.314Z,6.70
2018-07-21T12:01:02.851Z,7.90
2018-07-21T12:04:07.186Z,7.57
2018-07-21T12:07:11.583Z,7.07
2018-07-21T12:10:16.688Z,7.37
2018-07-21T12:13:21.145Z,8.37
2018-07-21T12:16:25.459Z,7.83
2018-07-21T12:19:29.785Z,7.57
2018-07-21T12:22:34.228Z,6.63
2018-07-21T12:25:40.243Z,7.00
2018-07-21T12:28:44.564Z,7.17
2018-07-21T12:31:48.867Z,6.83
2018-07-21T12:34:53.262Z,7.23
2018-07-21T12:37:57.730Z,7.13
2018-07-21T12:41:02.130Z,7.30
2018-07-21T12:44:06.330Z,7.37
2018-07-21T12:47:11.524Z,7.73
2018-07-21T12:50:16.078Z,7.60
2018-07-21T12:53:21.121Z,8.17
2018-07-21T12:56:25.690Z,7.63
2018-07-21T12:59:29.916Z,7.37
2018-07-21T13:02:34.877Z,6.70
2018-07-21T13:05:39.027Z,6.90
2018-07-21T13:08:43.697Z,7.37
2018-07-21T13:11:48.429Z,7.10
2018-07-21T13:14:52.825Z,7.57
2018-07-21T13:17:58.017Z,7.00
2018-07-21T13:21:02.978Z,7.33
2018-07-21T13:24:07.292Z,7.13
2018-07-21T13:27:11.665Z,7.50
2018-07-21T13:30:16.030Z,7.07
2018-07-21T13:33:20.418Z,7.17
2018-07-21T13:36:24.693Z,6.13
2018-07-21T13:39:29.577Z,7.03
2018-07-21T13:42:34.782Z,6.60
2018-07-21T13:45:39.246Z,6.27
2018-07-21T13:48:43.844Z,6.10
2018-07-21T13:51:48.323Z,5.87
2018-07-21T13:54:52.927Z,5.30
2018-07-21T13:57:58.208Z,5.83
2018-07-21T14:01:02.938Z,5.67
2018-07-21T14:04:07.539Z,5.80
2018-07-21T14:07:12.045Z,5.37
2018-07-21T14:10:16.421Z,5.77
2018-07-21T14:13:20.847Z,5.53
2018-07-21T14:16:25.240Z,4.60
2018-07-21T14:19:30.199Z,5.43
2018-07-21T14:22:35.187Z,5.30
2018-07-21T14:25:39.531Z,4.77
2018-07-21T14:28:43.900Z,5.90
2018-07-21T14:31:48.294Z,5.57
2018-07-21T14:34:52.874Z,4.63
2018-07-21T14:37:57.187Z,4.80
2018-07-21T14:41:01.483Z,4.77
2018-07-21T14:44:05.987Z,5.10
2018-07-21T14:47:10.426Z,5.33
2018-07-21T14:50:14.926Z,4.97
2018-07-21T14:53:19.305Z,5.50
2018-07-21T14:56:24.657Z,5.10
2018-07-21T14:59:29.034Z,4.30
2018-07-21T15:02:34.983Z,4.10
2018-07-21T15:05:39.355Z,5.70
2018-07-21T15:08:43.844Z,4.53
2018-07-21T15:11:48.297Z,4.77
2018-07-21T15:14:52.732Z,4.73
2018-07-21T15:17:57.105Z,4.70
2018-07-21T15:21:01.531Z,4.63
2018-07-21T15:24:06.107Z,5.00
2018-07-21T15:27:10.609Z,4.80
2018-07-21T15:30:15.146Z,4.73
2018-07-21T15:33:19.435Z,4.80
2018-07-21T15:36:23.831Z,5.00
2018-07-21T15:39:28.089Z,5.00
2018-07-21T15:42:33.538Z,4.53
2018-07-21T15:45:38.456Z,4.50
2018-07-21T15:48:42.820Z,5.60
2018-07-21T15:51:47.220Z,6.03
2018-07-21T15:54:52.002Z,6.00
2018-07-21T15:57:56.389Z,6.30
2018-07-21T16:01:00.775Z,6.27
2018-07-21T16:04:05.316Z,5.73
2018-07-21T16:07:09.738Z,5.90
2018-07-21T16:10:14.218Z,5.63
2018-07-21T16:13:18.669Z,6.40
2018-07-21T16:16:23.166Z,5.47
2018-07-21T16:19:27.376Z,5.77
2018-07-21T16:22:31.782Z,8.63
2018-07-21T16:25:36.610Z,6.40
2018-07-21T16:28:40.892Z,9.27
2018-07-21T16:31:45.235Z,10.27
2018-07-21T16:34:49.585Z,6.67
2018-07-21T16:37:53.940Z,6.63
2018-07-21T16:40:58.403Z,5.60
2018-07-21T16:44:02.788Z,6.07
2018-07-21T16:47:07.392Z,6.00
2018-07-21T16:50:12.491Z,5.87
2018-07-21T16:53:16.971Z,6.00
2018-07-21T16:56:22.124Z,6.07
2018-07-21T16:59:26.624Z,6.63
2018-07-21T17:02:31.486Z,6.43
2018-07-21T17:05:36.076Z,6.50
2018-07-21T17:08:40.452Z,6.30
2018-07-21T17:11:45.179Z,7.47
2018-07-21T17:14:49.647Z,7.93
2018-07-21T17:17:53.989Z,8.50
2018-07-21T17:20:58.415Z,8.40
2018-07-21T17:24:02.681Z,6.93
2018-07-21T17:27:07.237Z,8.00
2018-07-21T17:30:12.271Z,9.80
2018-07-21T17:33:16.751Z,7.70
2018-07-21T17:36:21.219Z,8.30
2018-07-21T17:39:25.619Z,9.83
2018-07-21T17:42:29.901Z,8.73
2018-07-21T17:45:34.226Z,8.97
2018-07-21T17:48:39.089Z,9.37
2018-07-21T17:51:43.342Z,9.77
2018-07-21T17:54:47.669Z,9.93
2018-07-21T17:57:52.021Z,7.93
2018-07-21T18:00:56.305Z,7.90
2018-07-21T18:04:00.688Z,7.57
2018-07-21T18:07:05.674Z,7.97
2018-07-21T18:10:10.060Z,7.23
2018-07-21T18:13:14.390Z,8.30
2018-07-21T18:16:18.792Z,7.50
2018-07-21T18:19:23.048Z,6.53
2018-07-21T18:22:27.497Z,7.60
2018-07-21T18:25:33.226Z,6.87
2018-07-21T18:28:37.848Z,6.83
2018-07-21T18:31:42.341Z,8.00
2018-07-21T18:34:46.939Z,6.83
2018-07-21T18:37:53.066Z,7.50
2018-07-21T18:40:57.435Z,7.63
2018-07-21T18:44:01.856Z,7.23
2018-07-21T18:47:06.096Z,7.70
2018-07-21T18:50:10.591Z,7.33
2018-07-21T18:53:15.319Z,7.57
2018-07-21T18:56:19.910Z,6.73
2018-07-21T18:59:24.679Z,7.03
2018-07-21T19:02:29.059Z,7.93
2018-07-21T19:05:33.774Z,7.13
2018-07-21T19:08:43.676Z,6.83
2018-07-21T19:11:53.401Z,8.00
2018-07-21T19:14:57.870Z,7.37
2018-07-21T19:18:04.114Z,7.40
2018-07-21T19:21:13.622Z,7.30
2018-07-21T19:24:18.325Z,8.23
2018-07-21T19:27:32.799Z,7.57
2018-07-21T19:30:37.394Z,8.30
2018-07-21T19:33:41.876Z,8.80
2018-07-21T19:36:46.340Z,8.33
2018-07-21T19:39:50.720Z,8.33
2018-07-21T19:42:55.147Z,9.13
2018-07-21T19:45:59.692Z,8.60
2018-07-21T19:49:04.091Z,8.30
2018-07-21T19:52:08.818Z,10.00
2018-07-21T19:55:13.693Z,8.83
2018-07-21T19:58:18.292Z,9.20
2018-07-21T20:01:22.879Z,8.13
2018-07-21T20:04:27.445Z,8.17
2018-07-21T20:07:32.366Z,8.83
2018-07-21T20:10:37.155Z,8.57
2018-07-21T20:13:41.802Z,8.47
2018-07-21T20:16:46.252Z,7.60
2018-07-21T20:19:50.600Z,8.87
2018-07-21T20:22:54.963Z,7.93
2018-07-21T20:25:59.390Z,8.90
2018-07-21T20:29:04.323Z,9.10
2018-07-21T20:32:09.064Z,9.27
2018-07-21T20:35:13.627Z,9.83
2018-07-21T20:38:17.964Z,9.77
2018-07-21T20:41:22.898Z,8.67
2018-07-21T20:44:28.359Z,9.40
2018-07-21T20:47:32.785Z,8.73
2018-07-21T20:50:37.309Z,8.27
2018-07-21T20:53:41.739Z,8.23
2018-07-21T20:56:46.119Z,9.00
2018-07-21T20:59:50.594Z,8.67
2018-07-21T21:02:55.084Z,8.67
2018-07-21T21:05:59.453Z,8.57
2018-07-21T21:09:04.887Z,8.33
2018-07-21T21:12:09.446Z,9.00
2018-07-21T21:15:14.622Z,8.47
2018-07-21T21:18:19.541Z,8.67
2018-07-21T21:21:24.147Z,7.53
2018-07-21T21:24:28.829Z,8.73
2018-07-21T21:27:33.420Z,8.47
2018-07-21T21:30:38.186Z,8.97
2018-07-21T21:33:42.791Z,8.20
2018-07-21T21:36:49.512Z,8.47
2018-07-21T21:39:54.227Z,8.97
2018-07-21T21:42:59.882Z,9.00
2018-07-21T21:46:04.514Z,8.33
2018-07-21T21:49:09.547Z,9.40
2018-07-21T21:52:14.344Z,8.47
2018-07-21T21:55:19.158Z,8.10
2018-07-21T21:58:23.470Z,8.33
2018-07-21T22:01:29.316Z,8.33
2018-07-21T22:04:33.754Z,9.40
2018-07-21T22:07:38.776Z,8.47
2018-07-21T22:10:43.528Z,8.73
2018-07-21T22:13:48.095Z,9.40
2018-07-21T22:16:52.552Z,10.10
2018-07-21T22:19:57.001Z,9.90
2018-07-21T22:23:01.464Z,9.20
2018-07-21T22:26:05.929Z,9.20
2018-07-21T22:29:12.776Z,8.73
2018-07-21T22:32:17.214Z,9.60
2018-07-21T22:35:22.610Z,9.40
2018-07-21T22:38:28.014Z,9.00
2018-07-21T22:41:33.215Z,9.90
2018-07-21T22:44:37.902Z,8.97
2018-07-21T22:47:42.509Z,9.00
2018-07-21T22:50:47.182Z,8.10
2018-07-21T22:53:51.800Z,9.00
2018-07-21T22:56:56.284Z,9.03
2018-07-21T23:00:00.580Z,8.33
2018-07-21T23:03:05.193Z,7.73
2018-07-21T23:06:09.679Z,8.23
2018-07-21T23:09:14.291Z,8.63
2018-07-21T23:12:19.065Z,8.57
2018-07-21T23:15:23.642Z,8.13
2018-07-21T23:18:28.295Z,8.60
2018-07-21T23:21:32.857Z,7.80
2018-07-21T23:24:37.740Z,7.93
2018-07-21T23:27:42.353Z,8.43
2018-07-21T23:30:46.959Z,8.63
2018-07-21T23:33:51.459Z,7.80
2018-07-21T23:36:55.912Z,8.23
2018-07-21T23:40:00.362Z,8.57
2018-07-21T23:43:05.009Z,8.00
2018-07-21T23:46:09.729Z,8.73
2018-07-21T23:49:14.753Z,9.20
2018-07-21T23:52:19.913Z,8.83
2018-07-21T23:55:24.610Z,8.83
2018-07-21T23:58:29.150Z,8.50
